Sheyenne, North Dakota
Current Conditions -  °F | °C
As of 3:35 PM on Thursday 18 Dec 2014 (Local Time) from KDVL Reporting Station
Overcast Overcast  
Wind Chill:   Ceiling: 1000
Heat Index: 19°   Visibility: 9mi
Dew Point: 10°   Wind: 13mph
Humidity: 68%   Direction: 160°SSE
Pressure: 30.06"   Gusts: NA
Location:  47.83°N, 99.12°W
Report Text: KDVL 182135Z AUTO 16011KT 9SM BKN010 OVC018 M07/M12 A3006 RMK AO1
Loading
Personal Weather Stations






























Interactive Weather Map New forecast layout! Learn more

10-Day Weather Forecast

Advertisements
Track Severe Weather on mobile